Rochester International Airport
KRST : now visible

Airfield :











YOU CAN JOIN US ON...

 
LOGIN :

Register | Disclaimer

   EN    FR    IT 

 









Legend :    VFR   Marginal VFR   IFR   Intensive IFR   Very Intensive IFR
Visi :
Ceiling :
>= 8 km
>= 3000ft
5 to 8 km
1000 to 3000 ft
1500m to 5 km
500 to 1000 ft
800 to 1500m
200 to 500 ft
< 800m
< 200 ft
Symbols :   Thunderstorms  Fog  Heavy snow  Heavy precipitations  Wind > 20 kt






- Airport Elevation : 1317 ft
- IATA code : RST


KRST - Rochester International

CURRENT METAR :
  • 221254Z 27009KT 10SM BKN080 08/02 A3030 RMK AO2 SLP267 T00780017 $

EXPIRED METARs :
  • 221154Z 22005KT 10SM OVC075 06/02 A3028 RMK AO2 SLP261 T00560022 10078 20033 53023 $
  • 221054Z 22005KT 10SM OVC080 04/02 A3025 RMK AO2 SLP252 T00440017 $

TAF KRST
Valid from the 22 at 13:00 until the 23 at 12:00 UTC


221246Z 2213/2312 22005KT P6SM OVC080
FM221600 31013KT P6SM BKN050
FM230100 VRB04KT P6SM SKC
KZMP FIR / North America



MET'MAP, your aeronautical weather chart ! - Copyright ORBIFLY December 2007 - Disclaimer

ORBIFLY MET'MAP TEAM :

Programming & Development : Alexandra Zaïnal
Original concept : Baudouin d'Aumeries
Technical & hardware support : Manuel Goepfert
Assistance : Marc-Olivier Méhu

Contact : metmap@orbifly.com




SOURCES & CREDITS :

   NOAA       Earth
Advisory